Time;durP1;ratioP1;P1;durP2;ratioP2;P2;SDS_P1;SDS_P2;PMS_P1;PMS_P2;Temp;Humidity;BMP_temperature;BMP_pressure;BME280_temperature;BME280_humidity;BME280_pressure;Samples;Min_cycle;Max_cycle;Signal;HPM_P1;HPM_P2
2024/01/24 00:01:45;;;;;;;2.40;1.00;;;15.20;99.90;;;;;;5011819;28;20068;-21
2024/01/24 00:04:11;;;;;;;2.30;1.10;;;15.20;99.90;;;;;;5013223;28;20129;-20
2024/01/24 00:06:40;;;;;;;2.42;1.10;;;15.30;99.90;;;;;;5001735;28;20033;-21
2024/01/24 00:09:05;;;;;;;2.65;1.10;;;15.30;99.90;;;;;;5004525;28;20039;-22
2024/01/24 00:11:31;;;;;;;1.97;1.10;;;15.30;99.90;;;;;;4995965;28;20033;-20
2024/01/24 00:13:57;;;;;;;3.07;1.10;;;15.30;99.90;;;;;;5010166;28;20746;-22
2024/01/24 00:16:23;;;;;;;2.63;0.97;;;15.30;99.90;;;;;;5011155;28;20709;-24
2024/01/24 00:18:48;;;;;;;1.42;1.00;;;15.30;99.90;;;;;;5011455;28;20037;-21
2024/01/24 00:21:14;;;;;;;2.07;1.00;;;15.30;99.90;;;;;;5012402;28;20545;-21
2024/01/24 00:23:40;;;;;;;3.60;1.30;;;15.30;99.90;;;;;;4984272;28;20116;-21
2024/01/24 00:26:07;;;;;;;3.10;1.10;;;15.30;99.90;;;;;;5012315;28;20073;-22
2024/01/24 00:28:32;;;;;;;3.30;1.10;;;15.40;99.90;;;;;;5011006;28;20547;-21
2024/01/24 00:30:58;;;;;;;1.53;0.97;;;15.30;99.90;;;;;;5012397;28;20105;-22
2024/01/24 00:33:25;;;;;;;2.25;1.10;;;15.30;99.90;;;;;;5010735;28;20048;-20
2024/01/24 00:35:51;;;;;;;3.97;1.30;;;15.30;99.90;;;;;;4996560;28;20120;-20
2024/01/24 00:38:17;;;;;;;1.63;1.00;;;15.30;99.90;;;;;;5012354;28;20086;-22
2024/01/24 00:40:43;;;;;;;1.38;1.00;;;15.30;99.90;;;;;;4991734;28;20121;-20
2024/01/24 00:43:09;;;;;;;1.23;0.90;;;15.40;99.90;;;;;;4959534;28;20041;-20
2024/01/24 00:45:34;;;;;;;3.55;0.93;;;15.40;99.90;;;;;;4994894;28;20240;-22
2024/01/24 00:48:00;;;;;;;3.40;1.20;;;15.40;99.90;;;;;;4991587;28;20070;-19
2024/01/24 00:50:26;;;;;;;1.70;0.90;;;15.40;99.90;;;;;;4960595;28;20100;-20
2024/01/24 00:52:55;;;;;;;2.67;1.10;;;15.40;99.90;;;;;;4990832;28;20616;-21
2024/01/24 00:55:24;;;;;;;2.53;1.07;;;15.40;99.90;;;;;;4990498;28;20316;-23
2024/01/24 00:57:50;;;;;;;1.30;0.90;;;15.40;99.90;;;;;;4992772;28;20165;-20
2024/01/24 01:00:16;;;;;;;1.65;1.00;;;15.40;99.90;;;;;;4993117;28;20716;-20
2024/01/24 01:02:43;;;;;;;2.53;1.00;;;15.40;99.90;;;;;;4994255;28;20026;-23
2024/01/24 01:05:08;;;;;;;1.83;1.20;;;15.30;99.90;;;;;;4977766;28;20054;-22
2024/01/24 01:07:34;;;;;;;1.27;0.88;;;15.30;99.90;;;;;;4997850;28;20088;-23
2024/01/24 01:10:00;;;;;;;1.00;0.90;;;15.20;99.90;;;;;;4983805;28;20438;-21
2024/01/24 01:12:26;;;;;;;1.83;1.02;;;15.10;99.90;;;;;;4998998;28;20258;-20
2024/01/24 01:14:51;;;;;;;1.37;0.80;;;15.10;99.90;;;;;;4994724;28;20038;-20
2024/01/24 01:17:17;;;;;;;1.67;1.08;;;14.90;99.90;;;;;;4995226;28;20382;-22
2024/01/24 01:19:43;;;;;;;1.20;0.90;;;14.90;99.90;;;;;;4996051;28;20117;-20
2024/01/24 01:22:08;;;;;;;1.48;1.00;;;14.90;99.90;;;;;;4996707;28;20096;-22
2024/01/24 01:24:34;;;;;;;0.83;0.80;;;14.80;99.90;;;;;;4998053;28;20129;-21
2024/01/24 01:27:01;;;;;;;1.52;0.90;;;14.80;99.90;;;;;;4995808;28;20038;-19
2024/01/24 01:29:28;;;;;;;1.60;1.07;;;14.70;99.90;;;;;;4998910;28;20350;-21
2024/01/24 01:31:53;;;;;;;1.00;0.90;;;14.70;99.90;;;;;;4986250;28;20046;-24
2024/01/24 01:34:19;;;;;;;1.60;1.10;;;14.70;99.90;;;;;;4997489;28;20053;-19
2024/01/24 01:36:45;;;;;;;2.08;1.10;;;14.60;99.90;;;;;;4997370;28;20282;-21
2024/01/24 01:39:11;;;;;;;1.63;0.93;;;14.60;99.90;;;;;;4963137;28;20125;-20
2024/01/24 01:41:36;;;;;;;1.50;1.00;;;14.60;99.90;;;;;;4980938;28;20057;-19
2024/01/24 01:44:03;;;;;;;1.63;0.90;;;14.50;99.90;;;;;;5016276;28;20026;-19
2024/01/24 01:46:31;;;;;;;1.10;0.88;;;14.50;99.90;;;;;;5016684;28;20588;-18
2024/01/24 01:48:58;;;;;;;2.50;0.90;;;14.50;99.90;;;;;;5001077;28;20041;-21
2024/01/24 01:51:26;;;;;;;1.55;0.90;;;14.50;99.90;;;;;;5002438;28;20398;-21
2024/01/24 01:53:52;;;;;;;2.10;1.00;;;14.40;99.90;;;;;;4997033;28;20026;-18
2024/01/24 01:56:21;;;;;;;1.05;0.90;;;14.40;99.90;;;;;;5002074;28;20041;-18
2024/01/24 01:58:48;;;;;;;1.17;0.90;;;14.40;99.90;;;;;;5017119;28;20077;-17
2024/01/24 02:01:14;;;;;;;1.00;0.80;;;14.40;99.90;;;;;;5016272;28;20088;-17
2024/01/24 02:03:41;;;;;;;1.45;0.95;;;14.40;99.90;;;;;;5016218;28;20041;-18
2024/01/24 02:06:07;;;;;;;0.90;0.75;;;14.30;99.90;;;;;;4998115;28;20044;-17
2024/01/24 02:08:34;;;;;;;1.30;0.90;;;14.40;99.90;;;;;;4999234;28;20033;-17
2024/01/24 02:11:00;;;;;;;2.07;0.80;;;14.30;99.90;;;;;;5015198;28;20029;-17
2024/01/24 02:13:32;;;;;;;0.82;0.75;;;14.30;99.90;;;;;;5018062;28;20033;-17
2024/01/24 02:16:03;;;;;;;1.05;0.70;;;14.30;99.90;;;;;;5012286;28;20452;-15
2024/01/24 02:18:29;;;;;;;1.08;0.80;;;14.30;99.90;;;;;;5015673;28;20050;-15
2024/01/24 02:20:56;;;;;;;1.48;1.00;;;14.30;99.90;;;;;;5013864;28;20041;-14
2024/01/24 02:23:30;;;;;;;0.80;0.63;;;14.30;99.90;;;;;;5006141;28;20026;-15
2024/01/24 02:25:57;;;;;;;0.98;0.88;;;14.30;99.90;;;;;;5010816;28;20041;-14
2024/01/24 02:28:23;;;;;;;0.90;0.70;;;14.30;99.90;;;;;;5014007;28;20682;-14
2024/01/24 02:30:49;;;;;;;0.60;0.60;;;14.30;99.90;;;;;;4997297;28;20160;-14
2024/01/24 02:33:14;;;;;;;0.87;0.70;;;14.30;99.90;;;;;;5016721;28;20088;-15
2024/01/24 02:35:40;;;;;;;0.60;0.50;;;14.30;99.90;;;;;;5015314;28;20033;-14
2024/01/24 02:38:06;;;;;;;1.03;0.70;;;14.30;99.90;;;;;;5014879;28;20093;-14
2024/01/24 02:40:32;;;;;;;0.65;0.57;;;14.20;99.90;;;;;;4980181;28;20101;-15
2024/01/24 02:42:58;;;;;;;1.00;0.60;;;14.20;99.90;;;;;;5014747;28;20080;-15
2024/01/24 02:45:23;;;;;;;0.70;0.53;;;14.30;99.90;;;;;;5014025;28;20145;-15
2024/01/24 02:47:49;;;;;;;0.55;0.50;;;14.20;99.90;;;;;;5015743;28;20038;-16
2024/01/24 02:50:16;;;;;;;0.50;0.50;;;14.20;99.90;;;;;;5013570;28;20033;-15
2024/01/24 02:52:41;;;;;;;0.60;0.50;;;14.30;99.90;;;;;;4979939;28;20104;-15
2024/01/24 02:55:12;;;;;;;0.68;0.50;;;14.20;99.90;;;;;;5012886;28;20313;-15
2024/01/24 02:57:38;;;;;;;0.70;0.50;;;14.30;99.90;;;;;;5014166;28;20660;-15
2024/01/24 03:00:07;;;;;;;0.50;0.40;;;14.20;99.90;;;;;;5016338;28;20129;-15
2024/01/24 03:02:33;;;;;;;0.60;0.60;;;14.20;99.90;;;;;;4999741;28;20053;-15
2024/01/24 03:04:58;;;;;;;0.57;0.50;;;14.20;99.90;;;;;;5013719;28;20028;-15
2024/01/24 03:07:24;;;;;;;1.17;0.52;;;14.20;99.90;;;;;;4982097;28;20510;-15
2024/01/24 03:09:50;;;;;;;1.48;0.73;;;14.20;99.90;;;;;;5001713;28;20120;-15
2024/01/24 03:12:16;;;;;;;0.77;0.50;;;14.20;99.90;;;;;;5010401;28;20034;-16
2024/01/24 03:14:41;;;;;;;0.50;0.50;;;14.20;99.90;;;;;;5015640;28;20064;-15
2024/01/24 03:17:08;;;;;;;0.50;0.50;;;14.20;99.90;;;;;;5012907;28;20037;-15
2024/01/24 03:19:34;;;;;;;0.68;0.50;;;14.20;99.90;;;;;;5013162;28;20120;-15
2024/01/24 03:22:00;;;;;;;0.43;0.43;;;14.20;99.90;;;;;;4997463;28;20060;-15
2024/01/24 03:24:26;;;;;;;1.53;0.53;;;14.20;99.90;;;;;;5012486;28;20038;-16
2024/01/24 03:26:52;;;;;;;2.08;0.80;;;14.20;99.90;;;;;;5015451;28;20034;-16
2024/01/24 03:29:17;;;;;;;1.40;0.70;;;14.20;99.90;;;;;;4998671;28;20039;-15
2024/01/24 03:31:43;;;;;;;1.08;0.65;;;14.10;99.90;;;;;;5013418;28;20393;-15
2024/01/24 03:34:12;;;;;;;2.22;0.80;;;14.10;99.90;;;;;;5009316;28;20041;-15
2024/01/24 03:36:38;;;;;;;2.20;0.67;;;14.10;99.90;;;;;;4991995;28;20052;-18
2024/01/24 03:39:04;;;;;;;2.08;0.90;;;14.00;99.90;;;;;;5011036;28;20042;-18
2024/01/24 03:41:30;;;;;;;4.18;1.13;;;14.10;99.90;;;;;;5011612;28;20053;-19
2024/01/24 03:43:56;;;;;;;5.00;1.10;;;14.00;99.90;;;;;;5012088;28;20038;-18
2024/01/24 03:46:22;;;;;;;3.08;0.80;;;14.00;99.90;;;;;;5010184;28;20061;-18
2024/01/24 03:48:47;;;;;;;3.60;0.95;;;14.00;99.90;;;;;;4968930;28;20060;-18
2024/01/24 03:51:13;;;;;;;3.73;0.90;;;14.00;99.90;;;;;;4993849;28;20060;-17
2024/01/24 03:53:39;;;;;;;2.75;0.80;;;14.00;99.90;;;;;;5012450;28;20547;-20
2024/01/24 03:56:06;;;;;;;3.07;1.10;;;14.00;99.90;;;;;;5013244;28;20044;-19
2024/01/24 03:58:31;;;;;;;5.95;1.15;;;14.00;99.90;;;;;;5000288;28;20398;-18
2024/01/24 04:00:57;;;;;;;4.85;1.13;;;14.10;99.90;;;;;;5015857;28;20487;-19
2024/01/24 04:03:23;;;;;;;6.43;1.10;;;14.10;99.90;;;;;;4985831;28;20096;-17
2024/01/24 04:05:48;;;;;;;4.65;1.05;;;14.10;99.90;;;;;;5011152;28;20045;-20
2024/01/24 04:08:14;;;;;;;5.17;1.07;;;14.10;99.90;;;;;;5010737;28;20040;-18
2024/01/24 04:10:40;;;;;;;4.77;1.10;;;14.10;99.90;;;;;;4994838;28;20393;-18
2024/01/24 04:13:05;;;;;;;5.73;1.20;;;14.10;99.90;;;;;;5011767;28;20280;-17
2024/01/24 04:15:31;;;;;;;4.40;0.90;;;14.20;99.90;;;;;;5013892;28;20053;-18
2024/01/24 04:17:58;;;;;;;5.87;1.00;;;14.20;99.90;;;;;;4997362;28;20049;-19
2024/01/24 04:20:24;;;;;;;6.25;1.48;;;14.20;99.90;;;;;;5013777;28;20041;-20
2024/01/24 04:22:49;;;;;;;4.25;1.08;;;14.10;99.90;;;;;;5011668;28;20033;-19
2024/01/24 04:25:15;;;;;;;8.07;1.40;;;14.10;99.90;;;;;;4998256;28;20033;-17
2024/01/24 04:27:41;;;;;;;6.07;1.65;;;14.10;99.90;;;;;;5011233;28;20036;-19
2024/01/24 04:30:07;;;;;;;6.17;1.40;;;14.10;99.90;;;;;;4997469;28;20113;-18
2024/01/24 04:32:33;;;;;;;5.07;1.10;;;14.10;99.90;;;;;;4987442;28;20041;-18
2024/01/24 04:34:59;;;;;;;7.30;1.20;;;14.10;99.90;;;;;;5014861;28;20031;-18
2024/01/24 04:37:24;;;;;;;8.90;1.20;;;14.10;99.90;;;;;;4999195;28;20540;-18
2024/01/24 04:39:50;;;;;;;5.82;1.42;;;14.20;99.90;;;;;;4996363;28;20119;-18
2024/01/24 04:42:16;;;;;;;6.03;1.23;;;14.20;99.90;;;;;;5010585;28;20025;-18
2024/01/24 04:44:42;;;;;;;7.18;1.20;;;14.10;99.90;;;;;;5009410;28;20037;-17
2024/01/24 04:47:07;;;;;;;3.97;1.17;;;14.20;99.90;;;;;;5013793;28;20038;-18
2024/01/24 04:49:33;;;;;;;9.25;1.40;;;14.20;99.90;;;;;;5011738;28;20132;-17
2024/01/24 04:51:59;;;;;;;10.47;1.37;;;16.00;99.90;;;;;;5011495;28;20482;-20
2024/01/24 04:54:24;;;;;;;6.05;1.30;;;14.20;99.90;;;;;;5013102;28;20866;-18
2024/01/24 04:56:50;;;;;;;8.37;1.67;;;14.20;99.90;;;;;;5016285;28;20690;-21
2024/01/24 04:59:16;;;;;;;6.63;1.15;;;14.20;99.90;;;;;;5011291;28;20435;-17
2024/01/24 05:01:42;;;;;;;9.80;1.80;;;14.20;99.90;;;;;;5013426;28;20160;-18
2024/01/24 05:04:09;;;;;;;8.82;2.25;;;14.20;99.90;;;;;;4998114;28;20033;-19
2024/01/24 05:06:35;;;;;;;8.70;1.38;;;14.20;99.90;;;;;;5009983;28;20119;-18
2024/01/24 05:09:02;;;;;;;7.05;1.55;;;14.10;99.90;;;;;;5011868;28;20486;-19
2024/01/24 05:11:28;;;;;;;5.60;1.07;;;14.10;99.90;;;;;;5000355;28;20171;-20
2024/01/24 05:13:55;;;;;;;9.90;1.42;;;14.10;99.90;;;;;;4978603;28;20057;-19
2024/01/24 05:16:21;;;;;;;9.35;1.67;;;14.10;99.90;;;;;;5010223;28;20026;-18
2024/01/24 05:18:47;;;;;;;15.43;2.37;;;14.10;99.90;;;;;;5003172;28;20072;-19
2024/01/24 05:21:13;;;;;;;11.00;2.17;;;14.10;99.90;;;;;;5012556;28;20041;-20
2024/01/24 05:23:38;;;;;;;10.77;1.90;;;14.00;99.90;;;;;;5012772;28;20037;-19
2024/01/24 05:26:04;;;;;;;9.52;1.95;;;14.10;99.90;;;;;;5013480;28;20478;-19
2024/01/24 05:28:30;;;;;;;11.43;1.63;;;14.00;99.90;;;;;;5012181;28;21307;-22
2024/01/24 05:30:56;;;;;;;8.57;1.58;;;14.00;99.90;;;;;;5013799;28;20096;-19
2024/01/24 05:33:22;;;;;;;9.57;1.77;;;14.00;99.90;;;;;;5011445;28;20358;-19
2024/01/24 05:35:47;;;;;;;10.80;1.63;;;14.00;99.90;;;;;;5011836;28;20485;-18
2024/01/24 05:38:13;;;;;;;14.80;2.22;;;14.00;99.90;;;;;;4983932;28;20743;-20
2024/01/24 05:40:39;;;;;;;12.07;2.40;;;14.00;99.90;;;;;;5010279;28;20054;-20
2024/01/24 05:43:04;;;;;;;10.00;2.33;;;14.00;99.90;;;;;;4998317;28;20061;-21
2024/01/24 05:45:31;;;;;;;11.37;1.93;;;14.00;99.90;;;;;;5005182;28;20508;-21
2024/01/24 05:47:57;;;;;;;12.23;1.77;;;14.00;99.90;;;;;;5012759;28;20220;-19
2024/01/24 05:50:23;;;;;;;16.00;2.77;;;14.00;99.90;;;;;;5009316;28;20040;-21
2024/01/24 05:52:48;;;;;;;12.00;2.08;;;14.00;99.90;;;;;;5002420;28;20033;-20
2024/01/24 05:55:14;;;;;;;17.70;2.40;;;13.90;99.90;;;;;;5016759;28;20454;-20
2024/01/24 05:57:41;;;;;;;11.98;2.67;;;14.00;99.90;;;;;;4993709;28;20045;-21
2024/01/24 06:00:09;;;;;;;17.20;2.67;;;13.90;99.90;;;;;;4991358;28;20490;-20
2024/01/24 06:02:38;;;;;;;11.40;2.15;;;13.90;99.90;;;;;;5010686;28;20133;-22
2024/01/24 06:05:04;;;;;;;11.43;1.80;;;13.90;99.90;;;;;;4996598;28;20044;-22
2024/01/24 06:07:31;;;;;;;12.23;1.98;;;13.90;99.90;;;;;;5016272;28;20112;-18
2024/01/24 06:09:57;;;;;;;20.13;3.35;;;13.90;99.90;;;;;;5013790;28;20041;-17
2024/01/24 06:12:23;;;;;;;13.35;1.95;;;13.90;99.90;;;;;;5014048;28;20045;-18
2024/01/24 06:14:49;;;;;;;15.07;2.13;;;13.90;99.90;;;;;;5009146;28;20041;-17
2024/01/24 06:17:15;;;;;;;13.10;2.00;;;13.90;99.90;;;;;;5010229;28;20038;-21
2024/01/24 06:19:42;;;;;;;12.20;1.85;;;13.90;99.90;;;;;;5015015;28;20048;-24
2024/01/24 06:22:09;;;;;;;10.57;1.88;;;13.90;99.90;;;;;;4999839;28;20381;-24
2024/01/24 06:24:35;;;;;;;11.93;2.40;;;13.90;99.90;;;;;;5014045;28;20026;-26
2024/01/24 06:27:01;;;;;;;13.60;2.37;;;13.90;99.90;;;;;;4986612;28;20030;-24
2024/01/24 06:29:27;;;;;;;10.75;2.03;;;13.90;99.90;;;;;;5001580;28;20438;-25
2024/01/24 06:31:53;;;;;;;13.07;2.22;;;13.90;99.90;;;;;;5015188;28;20144;-26
2024/01/24 06:34:19;;;;;;;13.18;2.25;;;13.90;99.90;;;;;;4986251;28;20172;-24
2024/01/24 06:36:44;;;;;;;11.87;1.80;;;13.80;99.90;;;;;;5015832;28;20041;-22
2024/01/24 06:39:10;;;;;;;11.70;2.17;;;13.80;99.90;;;;;;5016738;28;20117;-22
2024/01/24 06:41:36;;;;;;;16.50;2.35;;;13.80;99.90;;;;;;4997948;28;20084;-25
2024/01/24 06:44:05;;;;;;;15.03;2.50;;;13.80;99.90;;;;;;5016074;28;20034;-23
2024/01/24 06:46:31;;;;;;;11.55;2.20;;;13.80;99.90;;;;;;5001656;28;20095;-29
2024/01/24 06:48:57;;;;;;;13.57;2.45;;;13.80;99.90;;;;;;5001803;28;20037;-25
2024/01/24 06:51:23;;;;;;;13.88;1.75;;;13.80;99.90;;;;;;5016718;28;20048;-26
2024/01/24 06:53:48;;;;;;;11.90;2.00;;;13.70;99.90;;;;;;5014695;28;20091;-24
2024/01/24 06:56:14;;;;;;;12.93;2.33;;;13.70;99.90;;;;;;5010383;28;20069;-25
2024/01/24 06:58:42;;;;;;;12.13;2.10;;;13.70;99.90;;;;;;5012985;28;20041;-25
2024/01/24 07:01:08;;;;;;;14.35;2.33;;;13.70;99.90;;;;;;5013141;28;20277;-22
2024/01/24 07:03:34;;;;;;;14.67;2.77;;;13.70;99.90;;;;;;5015728;28;20071;-21
2024/01/24 07:06:00;;;;;;;12.10;2.17;;;13.70;99.90;;;;;;5013652;28;20037;-23
2024/01/24 07:08:25;;;;;;;10.17;1.80;;;13.60;99.90;;;;;;5014615;28;20052;-18
2024/01/24 07:10:51;;;;;;;15.10;1.90;;;13.60;99.90;;;;;;5013170;28;20799;-20
2024/01/24 07:13:17;;;;;;;8.37;1.97;;;13.60;99.90;;;;;;5013209;28;20104;-21
2024/01/24 07:15:43;;;;;;;11.65;2.38;;;13.60;99.90;;;;;;5008634;28;20092;-20
2024/01/24 07:18:12;;;;;;;11.65;2.00;;;14.20;99.90;;;;;;4993158;28;20113;-21
2024/01/24 07:20:38;;;;;;;8.77;1.60;;;13.60;99.90;;;;;;4982841;28;20500;-20
2024/01/24 07:23:04;;;;;;;11.73;2.55;;;13.60;99.90;;;;;;5011830;28;20029;-19
2024/01/24 07:25:29;;;;;;;13.85;2.10;;;13.60;99.90;;;;;;4985093;28;20635;-20
2024/01/24 07:27:55;;;;;;;19.70;2.53;;;13.60;99.90;;;;;;5011942;28;20109;-23
2024/01/24 07:30:22;;;;;;;17.55;2.60;;;13.60;99.90;;;;;;5011367;28;20069;-26
2024/01/24 07:32:49;;;;;;;14.85;2.20;;;13.60;99.90;;;;;;5001619;28;20046;-25
2024/01/24 07:35:15;;;;;;;10.20;1.70;;;13.60;99.90;;;;;;5012538;28;20072;-26
2024/01/24 07:37:41;;;;;;;14.23;2.72;;;13.60;99.90;;;;;;4979030;28;20061;-23
2024/01/24 07:40:07;;;;;;;15.77;2.63;;;13.60;99.90;;;;;;5012810;28;20042;-20
2024/01/24 07:42:33;;;;;;;11.33;2.33;;;13.60;99.90;;;;;;5013429;28;20041;-21
2024/01/24 07:44:59;;;;;;;14.25;2.38;;;13.50;99.90;;;;;;5012262;28;20634;-21
2024/01/24 07:47:25;;;;;;;11.45;2.08;;;13.50;99.90;;;;;;5014873;28;20425;-20
2024/01/24 07:49:51;;;;;;;11.73;2.40;;;13.50;99.90;;;;;;5014262;28;20050;-19
2024/01/24 07:52:16;;;;;;;12.00;2.20;;;13.50;99.90;;;;;;4992325;28;20710;-18
2024/01/24 07:54:43;;;;;;;17.43;2.97;;;13.50;99.90;;;;;;5014222;28;20100;-20
2024/01/24 07:57:09;;;;;;;14.48;2.70;;;13.50;99.90;;;;;;4995811;28;20065;-20
2024/01/24 07:59:35;;;;;;;13.77;2.10;;;13.50;99.90;;;;;;5010620;28;20124;-20
2024/01/24 08:02:02;;;;;;;15.63;2.60;;;13.40;99.90;;;;;;5011217;28;20068;-21
2024/01/24 08:04:30;;;;;;;16.90;2.53;;;13.40;99.90;;;;;;4996987;28;20033;-20
2024/01/24 08:06:56;;;;;;;15.20;3.08;;;13.40;99.90;;;;;;5000760;28;20401;-20
2024/01/24 08:09:21;;;;;;;13.07;2.77;;;13.40;99.90;;;;;;5011130;28;20127;-22
2024/01/24 08:11:47;;;;;;;17.70;3.25;;;13.30;99.90;;;;;;5009723;28;20043;-21
2024/01/24 08:14:13;;;;;;;12.57;2.33;;;13.30;99.90;;;;;;5008625;28;20286;-19
2024/01/24 08:16:39;;;;;;;18.38;2.72;;;12.80;99.90;;;;;;5009957;28;20034;-19
2024/01/24 08:19:04;;;;;;;13.10;2.27;;;13.30;99.90;;;;;;4995991;28;20099;-20
2024/01/24 08:21:30;;;;;;;17.63;2.92;;;13.30;99.90;;;;;;4992482;28;20038;-21
2024/01/24 08:23:56;;;;;;;13.25;2.33;;;13.30;99.90;;;;;;5010792;28;20508;-21
2024/01/24 08:26:22;;;;;;;11.10;2.10;;;13.30;99.90;;;;;;4995439;28;20291;-20
2024/01/24 08:28:48;;;;;;;16.47;2.73;;;13.30;99.90;;;;;;5011404;28;20037;-19
2024/01/24 08:31:13;;;;;;;15.15;2.42;;;13.30;99.90;;;;;;5014038;28;20037;-20
2024/01/24 08:33:39;;;;;;;11.90;2.38;;;13.30;99.90;;;;;;5011867;28;20025;-24
2024/01/24 08:36:05;;;;;;;13.40;2.80;;;13.40;99.90;;;;;;5010489;28;20037;-22
2024/01/24 08:38:31;;;;;;;11.63;2.30;;;13.30;99.90;;;;;;5012952;28;20041;-20
2024/01/24 08:40:57;;;;;;;15.57;2.08;;;13.30;99.90;;;;;;5012667;28;20683;-19
2024/01/24 08:43:22;;;;;;;14.67;3.23;;;13.40;99.90;;;;;;4996173;28;20350;-21
2024/01/24 08:45:50;;;;;;;13.75;2.58;;;13.30;99.90;;;;;;5012671;28;20048;-21
2024/01/24 08:48:17;;;;;;;15.30;2.37;;;13.40;99.90;;;;;;5012164;28;20613;-27
2024/01/24 08:50:43;;;;;;;14.55;2.50;;;13.40;99.90;;;;;;4977016;28;20038;-25
2024/01/24 08:53:09;;;;;;;11.73;2.17;;;13.40;99.90;;;;;;5012275;28;20677;-29
2024/01/24 08:55:34;;;;;;;13.90;2.50;;;13.40;99.90;;;;;;5007546;28;20509;-25
2024/01/24 08:58:00;;;;;;;11.93;2.33;;;13.40;99.90;;;;;;5010104;28;20038;-24
2024/01/24 09:00:25;;;;;;;14.77;2.23;;;13.40;99.90;;;;;;5014173;28;20537;-24
2024/01/24 09:02:51;;;;;;;16.27;2.88;;;13.50;99.90;;;;;;4998076;28;20033;-24
2024/01/24 09:05:19;;;;;;;16.37;2.63;;;13.50;99.90;;;;;;5012760;28;20296;-27
2024/01/24 09:07:45;;;;;;;15.05;2.95;;;13.50;99.90;;;;;;4998970;28;20041;-23
2024/01/24 09:10:11;;;;;;;16.90;2.83;;;13.50;99.90;;;;;;4997248;28;20044;-25
2024/01/24 09:12:37;;;;;;;14.40;2.40;;;13.50;99.90;;;;;;4978677;28;20111;-25
2024/01/24 09:15:04;;;;;;;11.60;2.40;;;13.60;99.90;;;;;;4996520;28;20695;-25
2024/01/24 09:17:30;;;;;;;10.85;2.78;;;13.60;99.90;;;;;;5011136;28;20029;-26
2024/01/24 09:19:56;;;;;;;14.93;3.07;;;13.60;99.90;;;;;;5010119;28;20580;-26
2024/01/24 09:22:21;;;;;;;12.82;2.45;;;13.60;99.90;;;;;;4998865;28;20551;-27
2024/01/24 09:24:47;;;;;;;13.20;2.50;;;13.60;99.90;;;;;;5012480;28;20089;-24
2024/01/24 09:27:13;;;;;;;12.98;2.42;;;13.60;99.90;;;;;;4982161;28;20033;-25
2024/01/24 09:29:38;;;;;;;10.43;2.50;;;13.70;99.90;;;;;;5016892;28;20026;-23
2024/01/24 09:32:04;;;;;;;11.40;1.70;;;13.70;99.90;;;;;;5015051;28;20033;-25
2024/01/24 09:34:30;;;;;;;12.27;2.43;;;13.70;99.90;;;;;;4986537;28;20099;-23
2024/01/24 09:36:56;;;;;;;17.67;2.70;;;13.80;99.90;;;;;;5016728;28;20037;-22
2024/01/24 09:39:25;;;;;;;12.40;2.83;;;13.80;99.90;;;;;;5017525;28;20113;-25
2024/01/24 09:41:51;;;;;;;16.90;3.05;;;13.80;99.90;;;;;;5015504;28;20057;-26
2024/01/24 09:44:17;;;;;;;11.70;1.90;;;13.80;99.90;;;;;;5016115;28;20059;-23
2024/01/24 09:46:44;;;;;;;12.23;2.08;;;13.90;99.90;;;;;;5000819;28;20034;-24
2024/01/24 09:49:10;;;;;;;13.88;2.00;;;13.90;99.90;;;;;;5017848;28;20470;-19
2024/01/24 09:51:37;;;;;;;10.30;1.87;;;14.00;99.90;;;;;;5002499;28;20112;-21
2024/01/24 09:54:07;;;;;;;13.98;2.63;;;14.00;99.90;;;;;;5016309;28;20216;-21
2024/01/24 09:56:35;;;;;;;12.98;2.15;;;14.10;99.90;;;;;;5015336;28;20128;-19
2024/01/24 09:59:03;;;;;;;15.45;2.05;;;14.10;99.90;;;;;;4996241;28;20033;-20
2024/01/24 10:01:33;;;;;;;12.55;2.38;;;14.10;99.90;;;;;;5012405;28;20952;-19
2024/01/24 10:04:00;;;;;;;15.23;2.80;;;14.20;99.90;;;;;;5014306;28;20025;-20
2024/01/24 10:06:29;;;;;;;16.73;2.40;;;14.20;99.90;;;;;;5011593;28;20226;-19
2024/01/24 10:08:56;;;;;;;15.48;3.08;;;14.20;99.90;;;;;;5013704;28;20111;-20
2024/01/24 10:11:23;;;;;;;10.85;2.22;;;14.20;99.90;;;;;;5015468;28;20266;-19
2024/01/24 10:13:49;;;;;;;13.43;2.80;;;14.30;99.90;;;;;;5011184;28;20064;-18
2024/01/24 10:16:15;;;;;;;17.77;2.63;;;14.30;99.90;;;;;;5013400;28;20482;-20
2024/01/24 10:18:42;;;;;;;16.80;3.35;;;14.30;99.90;;;;;;5012399;28;20589;-20
2024/01/24 10:21:08;;;;;;;20.73;2.70;;;14.40;99.90;;;;;;5015477;28;20386;-21
2024/01/24 10:23:33;;;;;;;15.00;2.60;;;14.40;99.90;;;;;;5015024;28;20040;-21
2024/01/24 10:26:00;;;;;;;14.32;2.33;;;14.50;99.90;;;;;;5010833;28;20048;-20
2024/01/24 10:28:26;;;;;;;9.83;1.73;;;14.50;99.90;;;;;;5005337;28;20042;-20
2024/01/24 10:30:51;;;;;;;9.15;2.05;;;14.50;99.90;;;;;;4996217;28;20060;-19
2024/01/24 10:33:17;;;;;;;12.30;1.98;;;14.60;99.90;;;;;;5009721;28;20072;-21
2024/01/24 10:35:43;;;;;;;13.63;2.00;;;14.70;99.90;;;;;;5011734;28;20316;-20
2024/01/24 10:38:11;;;;;;;10.30;1.93;;;14.80;99.90;;;;;;5016307;28;20470;-20
2024/01/24 10:40:39;;;;;;;16.27;2.67;;;14.80;99.90;;;;;;5011318;28;20104;-20
2024/01/24 10:43:13;;;;;;;13.13;2.65;;;14.90;99.90;;;;;;5013153;28;20087;-19
2024/01/24 10:45:44;;;;;;;11.45;2.38;;;14.90;99.90;;;;;;4999936;28;20030;-21
2024/01/24 10:48:11;;;;;;;13.10;1.93;;;15.10;99.90;;;;;;5009516;28;20033;-20
2024/01/24 10:50:41;;;;;;;15.40;2.72;;;15.10;99.90;;;;;;4996620;28;20060;-21
2024/01/24 10:53:09;;;;;;;13.68;2.25;;;15.20;99.90;;;;;;5013007;28;20326;-20
2024/01/24 10:55:36;;;;;;;16.75;3.00;;;15.30;99.90;;;;;;5012797;28;20456;-19
2024/01/24 10:58:03;;;;;;;13.80;2.30;;;15.40;99.90;;;;;;4993272;28;20040;-24
2024/01/24 11:00:29;;;;;;;14.00;2.53;;;15.60;99.90;;;;;;5009704;28;20025;-23
2024/01/24 11:02:56;;;;;;;19.48;3.38;;;15.70;99.90;;;;;;5007173;28;20314;-23
2024/01/24 11:05:48;;;;;;;13.40;2.33;;;15.90;99.90;;;;;;5013107;28;20116;-24
2024/01/24 11:08:29;;;;;;;13.13;2.03;;;16.10;99.90;;;;;;5011745;28;20044;-25
2024/01/24 11:10:57;;;;;;;12.88;2.53;;;16.40;99.90;;;;;;4996964;28;20025;-24
2024/01/24 11:13:26;;;;;;;13.10;2.07;;;16.50;99.90;;;;;;5012581;28;20033;-24
2024/01/24 11:15:54;;;;;;;12.32;2.38;;;16.70;99.90;;;;;;5014712;28;20168;-25
2024/01/24 11:18:21;;;;;;;16.05;2.78;;;16.80;99.90;;;;;;4998099;28;20034;-24
2024/01/24 11:20:58;;;;;;;14.20;2.45;;;16.90;99.90;;;;;;5010607;28;20034;-24
2024/01/24 11:23:41;;;;;;;16.25;3.05;;;17.00;99.90;;;;;;5009581;28;20042;-24
2024/01/24 11:26:32;;;;;;;12.93;2.60;;;17.10;99.90;;;;;;5010698;28;20053;-23
2024/01/24 11:29:16;;;;;;;14.55;2.40;;;17.30;99.90;;;;;;5012378;28;20041;-25
2024/01/24 11:31:43;;;;;;;11.18;2.20;;;17.40;99.90;;;;;;5009440;28;20033;-23
2024/01/24 11:34:10;;;;;;;12.85;2.25;;;17.30;99.90;;;;;;4984150;28;20065;-24
2024/01/24 11:36:47;;;;;;;13.07;2.53;;;17.40;99.90;;;;;;5011758;28;20033;-27
2024/01/24 11:39:35;;;;;;;15.33;2.20;;;17.30;99.90;;;;;;5012247;28;20140;-28
2024/01/24 11:42:43;;;;;;;13.65;2.53;;;17.30;99.90;;;;;;4993126;28;20102;-25
2024/01/24 11:45:19;;;;;;;14.77;2.38;;;17.30;99.90;;;;;;4978310;28;20243;-24
2024/01/24 11:47:46;;;;;;;11.98;2.30;;;17.30;99.90;;;;;;4983017;28;20061;-24
2024/01/24 11:50:13;;;;;;;12.52;2.58;;;17.30;99.90;;;;;;4965079;28;20065;-23
2024/01/24 11:52:39;;;;;;;12.53;2.17;;;17.30;99.90;;;;;;4994184;28;20034;-24
2024/01/24 11:55:06;;;;;;;11.43;2.08;;;17.30;99.90;;;;;;4994536;28;20037;-25
2024/01/24 11:57:32;;;;;;;11.07;2.20;;;17.40;99.90;;;;;;4979635;28;20046;-23
2024/01/24 11:59:57;;;;;;;10.52;1.80;;;17.50;99.90;;;;;;4993651;28;20037;-24
2024/01/24 12:02:24;;;;;;;10.13;2.27;;;17.60;99.90;;;;;;4994231;28;20205;-26
2024/01/24 12:04:53;;;;;;;11.60;2.20;;;17.60;99.90;;;;;;5008120;28;20106;-27
2024/01/24 12:07:19;;;;;;;10.93;2.20;;;17.60;99.90;;;;;;4996080;28;20026;-24
2024/01/24 12:09:45;;;;;;;12.15;2.40;;;17.50;99.90;;;;;;4998056;28;20034;-18
2024/01/24 12:12:13;;;;;;;13.00;2.80;;;17.40;99.90;;;;;;5007402;28;20042;-20
2024/01/24 12:14:40;;;;;;;12.70;2.40;;;17.30;99.90;;;;;;4976356;28;20076;-19
2024/01/24 12:17:09;;;;;;;15.25;2.50;;;17.20;99.90;;;;;;4994139;28;20049;-19
2024/01/24 12:19:39;;;;;;;11.68;2.00;;;17.10;99.90;;;;;;5006546;28;20195;-20
2024/01/24 12:22:06;;;;;;;10.82;2.15;;;17.00;99.90;;;;;;5005757;28;20074;-19
2024/01/24 12:24:32;;;;;;;12.13;1.90;;;17.00;99.90;;;;;;4982791;28;20045;-19
2024/01/24 12:27:00;;;;;;;13.88;2.35;;;17.00;99.90;;;;;;4995107;28;20033;-20
2024/01/24 12:29:25;;;;;;;8.55;1.80;;;17.00;99.90;;;;;;4993018;28;20039;-24
2024/01/24 12:31:51;;;;;;;12.38;2.30;;;17.00;99.90;;;;;;4994844;28;20436;-25
2024/01/24 12:34:21;;;;;;;9.60;2.20;;;17.00;99.90;;;;;;4977416;28;20034;-24
2024/01/24 12:36:47;;;;;;;11.20;1.80;;;17.00;99.90;;;;;;4992867;28;20033;-23
2024/01/24 12:39:13;;;;;;;11.68;2.35;;;17.00;99.90;;;;;;4993794;28;20036;-25